Time;durP1;ratioP1;P1;durP2;ratioP2;P2;SDS_P1;SDS_P2;PMS_P1;PMS_P2;Temp;Humidity;BMP_temperature;BMP_pressure;BME280_temperature;BME280_humidity;BME280_pressure;Samples;Min_cycle;Max_cycle;Signal;HPM_P1;HPM_P2
2022/04/02 00:00:16;;;;;;;9.32;4.70;;;;;;;3.94;65.71;97774.38;5055329;28;20068;-71
2022/04/02 00:02:47;;;;;;;10.52;5.07;;;;;;;3.97;65.45;97769.34;5073475;28;20553;-70
2022/04/02 00:05:16;;;;;;;8.38;4.90;;;;;;;4.00;65.28;97774.38;5073486;28;20498;-70
2022/04/02 00:07:45;;;;;;;8.50;5.05;;;;;;;3.96;65.43;97770.16;5073088;28;20094;-72
2022/04/02 00:10:15;;;;;;;10.52;5.28;;;;;;;4.00;64.61;97779.41;5073371;28;20445;-70
2022/04/02 00:12:45;;;;;;;10.50;5.17;;;;;;;3.99;64.63;97767.63;5073061;28;20491;-71
2022/04/02 00:15:14;;;;;;;8.75;4.88;;;;;;;3.95;64.70;97765.13;5072988;28;20076;-71
2022/04/02 00:17:43;;;;;;;8.88;4.82;;;;;;;3.93;65.73;97765.16;5072698;28;20049;-70
2022/04/02 00:20:14;;;;;;;8.17;4.60;;;;;;;3.97;65.73;97761.75;5073354;28;20060;-71
2022/04/02 00:23:35;;;;;;;8.73;5.00;;;;;;;3.88;65.29;97759.28;5072978;28;20052;-70
2022/04/02 00:25:32;;;;;;;10.13;4.97;;;;;;;3.83;65.25;97763.53;5072795;28;20514;-70
2022/04/02 00:28:01;;;;;;;10.17;4.80;;;;;;;3.88;65.55;97753.41;5072852;28;20293;-71
2022/04/02 00:30:30;;;;;;;8.07;3.95;;;;;;;3.83;65.82;97766.06;5073215;28;20386;-71
2022/04/02 00:33:00;;;;;;;12.37;5.77;;;;;;;3.81;65.81;97760.19;5054995;28;20398;-71
2022/04/02 00:35:30;;;;;;;12.05;5.53;;;;;;;3.80;65.73;97765.22;5055010;28;20296;-72
2022/04/02 00:37:59;;;;;;;11.13;5.10;;;;;;;3.70;65.95;97774.50;5073469;28;20517;-71
2022/04/02 00:40:29;;;;;;;7.30;4.40;;;;;;;3.81;65.50;97775.31;5072850;28;20047;-71
2022/04/02 00:42:58;;;;;;;10.23;5.88;;;;;;;3.86;65.14;97776.09;5073058;28;20468;-71
2022/04/02 00:45:28;;;;;;;9.73;5.60;;;;;;;3.89;65.12;97781.13;5055222;28;20509;-71
2022/04/02 00:47:57;;;;;;;11.13;5.05;;;;;;;3.90;65.38;97782.00;5073269;28;20437;-71
2022/04/02 00:50:27;;;;;;;6.13;3.67;;;;;;;3.87;64.43;97782.84;5075759;28;20040;-70
2022/04/02 00:52:58;;;;;;;9.63;5.47;;;;;;;3.89;65.31;97781.13;5076562;28;20559;-71
2022/04/02 00:55:30;;;;;;;10.80;5.65;;;;;;;3.81;65.07;97782.88;5076477;28;20075;-70
2022/04/02 00:58:07;;;;;;;9.90;5.22;;;;;;;3.70;65.95;97789.63;5058675;28;20067;-70
2022/04/02 01:00:37;;;;;;;11.02;6.10;;;;;;;3.76;65.63;97784.59;5076446;28;20418;-70
2022/04/02 01:03:06;;;;;;;10.95;5.55;;;;;;;3.74;65.57;97786.25;5058501;28;20072;-70
2022/04/02 01:05:37;;;;;;;13.73;5.50;;;;;;;3.86;65.33;97793.75;5058511;28;20119;-70
2022/04/02 01:08:11;;;;;;;11.65;5.75;;;;;;;3.92;64.98;97793.75;5058450;28;20040;-70
2022/04/02 01:10:40;;;;;;;11.15;5.55;;;;;;;3.96;64.49;97800.44;5075950;28;20079;-71
2022/04/02 01:13:11;;;;;;;9.07;5.57;;;;;;;3.84;65.15;97802.22;5075896;28;20050;-70
2022/04/02 01:15:40;;;;;;;10.85;5.47;;;;;;;3.68;65.99;97809.00;5075872;28;20049;-70
2022/04/02 01:18:12;;;;;;;11.73;5.82;;;;;;;3.82;65.07;97807.25;5075730;28;20056;-71
2022/04/02 01:20:42;;;;;;;10.05;5.63;;;;;;;3.87;65.14;97802.19;5057923;28;20053;-71
2022/04/02 01:23:12;;;;;;;11.52;5.40;;;;;;;3.82;65.18;97799.69;5076020;28;20044;-71
2022/04/02 01:25:45;;;;;;;11.63;5.65;;;;;;;3.73;65.14;97799.72;5057818;28;20056;-70
2022/04/02 01:28:26;;;;;;;11.13;6.00;;;;;;;3.73;65.25;97809.81;5057742;28;20057;-70
2022/04/02 01:30:56;;;;;;;10.75;5.72;;;;;;;3.65;65.94;97814.03;5057857;28;20057;-70
2022/04/02 01:33:28;;;;;;;8.57;5.20;;;;;;;3.66;65.42;97813.22;5058194;28;20490;-70
2022/04/02 01:36:01;;;;;;;9.95;5.78;;;;;;;3.70;65.59;97814.84;5057564;28;20094;-71
2022/04/02 01:38:33;;;;;;;8.88;5.63;;;;;;;3.73;65.32;97817.38;5075594;28;20555;-71
2022/04/02 01:41:03;;;;;;;13.13;6.35;;;;;;;3.61;65.25;97819.94;5057869;28;20131;-70
2022/04/02 01:43:38;;;;;;;10.85;5.95;;;;;;;3.57;65.40;97818.28;5057498;28;20044;-70
2022/04/02 01:46:08;;;;;;;11.57;6.03;;;;;;;3.47;66.25;97824.19;5057679;28;20032;-70
2022/04/02 01:48:38;;;;;;;13.10;6.20;;;;;;;3.62;65.77;97821.63;5075200;28;20068;-70
2022/04/02 01:51:09;;;;;;;11.73;5.70;;;;;;;3.62;65.98;97828.34;5075498;28;20122;-70
2022/04/02 01:53:40;;;;;;;8.30;4.32;;;;;;;3.55;65.62;97835.06;5075076;28;20041;-71
2022/04/02 01:56:12;;;;;;;11.85;5.50;;;;;;;3.65;65.23;97835.88;5057998;28;20044;-70
2022/04/02 01:58:49;;;;;;;9.95;5.68;;;;;;;3.69;65.16;97838.44;5057480;28;20044;-70
2022/04/02 02:01:23;;;;;;;10.48;6.10;;;;;;;3.61;65.10;97835.06;5056852;28;20041;-70
2022/04/02 02:03:52;;;;;;;;;;;;;;;3.61;65.74;97834.22;5057545;28;20071;-71
2022/04/02 02:06:22;;;;;;;8.65;4.35;;;;;;;3.63;64.50;97830.84;5074815;28;20011;-70
2022/04/02 02:08:54;;;;;;;11.20;5.75;;;;;;;3.64;64.72;97825.00;5057005;28;20052;-70
2022/04/02 02:11:34;;;;;;;10.75;6.05;;;;;;;3.62;65.25;97831.72;5074731;28;20048;-70
2022/04/02 02:14:23;;;;;;;12.73;5.15;;;;;;;3.63;64.76;97820.78;5043561;28;20075;-70
2022/04/02 02:17:03;;;;;;;;;;;;;;;3.67;64.89;97830.00;5075672;28;20047;-71
2022/04/02 02:19:32;;;;;;;8.65;4.68;;;;;;;3.68;64.49;97829.16;5074368;28;20364;-71
2022/04/02 02:22:01;;;;;;;9.60;5.47;;;;;;;3.66;65.21;97838.44;5074512;28;20041;-71
2022/04/02 02:24:32;;;;;;;10.77;5.13;;;;;;;3.62;64.65;97836.75;5074408;28;20064;-70
2022/04/02 02:27:01;;;;;;;13.13;5.35;;;;;;;3.61;64.97;97835.06;5074729;28;20402;-71
2022/04/02 02:29:32;;;;;;;10.65;5.10;;;;;;;3.68;65.17;97829.16;5056460;28;20127;-71
2022/04/02 02:32:13;;;;;;;12.15;6.15;;;;;;;3.62;64.56;97826.69;5056562;28;20045;-70
2022/04/02 02:37:22;;;;;;;11.02;5.95;;;;;;;3.52;64.90;97830.06;5074234;28;20045;-70
2022/04/02 02:40:01;;;;;;;10.77;5.57;;;;;;;3.57;64.58;97827.53;5056388;28;20055;-70
2022/04/02 02:42:31;;;;;;;8.48;4.63;;;;;;;3.53;64.27;97829.22;5056755;28;20044;-70
2022/04/02 02:45:17;;;;;;;9.93;5.07;;;;;;;3.59;63.90;97831.72;5056406;28;20072;-70
2022/04/02 02:47:47;;;;;;;9.60;5.18;;;;;;;3.50;64.21;97821.69;5056601;28;20397;-70
2022/04/02 02:50:21;;;;;;;7.75;4.78;;;;;;;3.38;64.11;97804.06;5056281;28;20052;-71
2022/04/02 02:52:57;;;;;;;11.20;5.05;;;;;;;3.43;64.71;97817.50;5074326;28;20098;-71
2022/04/02 02:55:29;;;;;;;8.63;4.50;;;;;;;3.29;64.22;97822.53;5073849;28;20048;-70
2022/04/02 02:58:04;;;;;;;8.20;4.60;;;;;;;3.29;64.69;97826.75;5056101;28;20044;-71
2022/04/02 03:00:33;;;;;;;18.77;12.75;;;;;;;3.34;65.13;97835.13;5074162;28;20045;-72
2022/04/02 03:03:04;;;;;;;10.88;5.20;;;;;;;3.32;65.16;97831.78;5056000;28;20048;-71
2022/04/02 03:05:35;;;;;;;8.40;4.82;;;;;;;3.33;65.07;97823.41;5056096;28;20111;-71
2022/04/02 03:08:10;;;;;;;9.13;4.28;;;;;;;3.33;64.04;97829.28;5056216;28;20135;-71
2022/04/02 03:10:49;;;;;;;8.95;5.00;;;;;;;3.26;64.25;97827.59;5056091;28;20495;-71
2022/04/02 03:13:24;;;;;;;9.95;4.55;;;;;;;3.21;64.58;97829.31;5056040;28;20138;-71
2022/04/02 03:16:02;;;;;;;8.48;4.05;;;;;;;3.18;64.92;97844.41;5056034;28;20398;-70
2022/04/02 03:18:32;;;;;;;7.35;4.45;;;;;;;3.24;64.40;97841.03;5073640;28;20044;-70
2022/04/02 03:21:06;;;;;;;8.95;4.80;;;;;;;3.17;64.71;97841.88;5055885;28;20494;-70
2022/04/02 03:23:36;;;;;;;8.43;5.15;;;;;;;3.15;64.63;97841.06;5055764;28;20055;-70
2022/04/02 03:26:06;;;;;;;8.88;5.20;;;;;;;3.03;64.84;97838.53;5055732;28;20048;-70
2022/04/02 03:28:40;;;;;;;8.95;4.72;;;;;;;3.08;64.87;97842.75;5055693;28;20053;-70
2022/04/02 03:31:09;;;;;;;8.50;4.90;;;;;;;3.05;64.68;97832.66;5073416;28;20052;-70
2022/04/02 03:33:42;;;;;;;8.10;4.60;;;;;;;3.08;64.58;97845.28;5055971;28;20493;-71
2022/04/02 03:36:12;;;;;;;8.40;4.90;;;;;;;3.02;65.47;97841.91;5055482;28;20048;-72
2022/04/02 03:38:43;;;;;;;9.77;4.75;;;;;;;2.90;65.48;97852.84;5055873;28;20053;-71
2022/04/02 03:41:17;;;;;;;11.55;5.80;;;;;;;2.96;64.91;97857.03;5055858;28;20059;-71
2022/04/02 03:43:51;;;;;;;8.52;4.68;;;;;;;3.02;64.93;97846.97;5055734;28;20520;-71
2022/04/02 03:49:05;;;;;;;11.57;4.97;;;;;;;2.95;65.21;97861.22;5073627;28;20048;-71
2022/04/02 03:51:34;;;;;;;10.02;4.28;;;;;;;2.96;65.41;97859.53;5073261;28;20285;-71
2022/04/02 03:54:10;;;;;;;10.98;5.20;;;;;;;2.80;65.87;97860.38;5055121;28;20080;-74
2022/04/02 03:56:46;;;;;;;8.65;4.72;;;;;;;2.81;65.06;97862.91;5055457;28;20071;-71
2022/04/02 03:59:18;;;;;;;7.93;4.63;;;;;;;2.78;65.56;97864.59;5055545;28;20047;-71
2022/04/02 04:01:52;;;;;;;8.68;4.35;;;;;;;2.64;66.71;97865.41;5055313;28;20133;-70
2022/04/02 04:04:24;;;;;;;9.10;4.60;;;;;;;2.68;66.15;97872.16;5055608;28;20513;-70
2022/04/02 04:06:53;;;;;;;9.88;5.00;;;;;;;2.61;65.81;97869.63;5055258;28;20521;-71
2022/04/02 04:09:22;;;;;;;10.60;4.95;;;;;;;2.59;67.03;97879.66;5055258;28;20037;-71
2022/04/02 04:11:55;;;;;;;10.85;5.07;;;;;;;2.67;66.17;97872.97;5055281;28;20474;-70
2022/04/02 04:14:28;;;;;;;10.48;6.22;;;;;;;2.71;66.79;97874.66;5073074;28;20098;-71
2022/04/02 04:16:59;;;;;;;9.15;5.03;;;;;;;2.62;66.69;97882.19;5072943;28;20135;-71
2022/04/02 04:19:29;;;;;;;10.02;4.90;;;;;;;2.80;66.52;97870.47;5055236;28;20052;-70
2022/04/02 04:21:58;;;;;;;9.23;4.50;;;;;;;2.66;66.12;97872.97;5073562;28;20037;-71
2022/04/02 04:24:29;;;;;;;8.65;4.68;;;;;;;2.72;65.84;97883.03;5058795;28;20052;-69
2022/04/02 04:27:00;;;;;;;9.55;4.80;;;;;;;2.71;66.08;97881.38;5058897;28;20036;-70
2022/04/02 04:29:29;;;;;;;10.77;5.32;;;;;;;2.70;66.28;97885.56;5059499;28;20116;-71
2022/04/02 04:31:59;;;;;;;8.77;4.85;;;;;;;2.79;65.93;97886.41;5059174;28;20053;-71
2022/04/02 04:34:29;;;;;;;10.13;4.82;;;;;;;2.65;66.12;97884.72;5076614;28;20079;-71
2022/04/02 04:36:58;;;;;;;6.87;3.67;;;;;;;2.64;66.31;97884.69;5076762;28;20048;-70
2022/04/02 04:39:28;;;;;;;;;;;;;;;2.67;66.41;97893.13;5059359;28;20135;-70
2022/04/02 04:42:02;;;;;;;8.35;4.75;;;;;;;2.73;65.99;97890.59;5058661;28;19924;-70
2022/04/02 04:44:35;;;;;;;10.07;4.78;;;;;;;2.78;65.79;97887.25;5058950;28;20055;-71
2022/04/02 04:47:05;;;;;;;8.60;4.68;;;;;;;2.79;66.21;97883.88;5058539;28;20059;-70
2022/04/02 04:49:42;;;;;;;8.77;4.78;;;;;;;2.89;65.99;97895.66;5059027;28;20390;-71
2022/04/02 04:52:15;;;;;;;9.98;5.38;;;;;;;2.85;66.74;97883.91;5059020;28;20391;-70
2022/04/02 04:54:44;;;;;;;11.30;5.80;;;;;;;2.79;66.85;97878.84;5058834;28;20106;-71
2022/04/02 04:57:21;;;;;;;9.45;4.72;;;;;;;2.80;65.96;97886.41;5076099;28;20040;-70
2022/04/02 04:59:59;;;;;;;11.05;6.28;;;;;;;2.95;66.46;97893.97;5076470;28;20123;-70
2022/04/02 05:02:32;;;;;;;8.10;5.03;;;;;;;2.99;66.15;97897.34;5076134;28;20044;-70
2022/04/02 05:05:03;;;;;;;9.05;5.07;;;;;;;2.94;65.68;97884.75;5058191;28;20052;-70
2022/04/02 05:07:53;;;;;;;10.23;4.82;;;;;;;3.27;65.44;97904.03;5058471;28;20033;-70
2022/04/02 05:10:25;;;;;;;8.85;4.22;;;;;;;3.24;65.02;97886.41;5076249;28;20036;-70
2022/04/02 05:12:57;;;;;;;9.60;5.47;;;;;;;3.66;64.36;97895.59;5058219;28;20052;-70
2022/04/02 05:15:27;;;;;;;12.10;5.18;;;;;;;3.44;64.09;97882.19;5075900;28;20041;-70
2022/04/02 05:17:58;;;;;;;8.88;4.50;;;;;;;3.67;64.38;97905.66;5057600;28;20114;-70
2022/04/02 05:20:30;;;;;;;8.43;5.00;;;;;;;3.96;63.71;97903.06;5057653;28;20490;-70
2022/04/02 05:22:59;;;;;;;9.40;4.90;;;;;;;3.88;63.71;97903.09;5075629;28;20055;-70
2022/04/02 05:25:28;;;;;;;8.65;4.80;;;;;;;3.98;64.03;97909.78;5075834;28;20486;-70
2022/04/02 05:28:00;;;;;;;9.18;5.15;;;;;;;4.08;62.67;97913.09;5057979;28;20510;-70
2022/04/02 05:30:29;;;;;;;10.10;4.60;;;;;;;4.20;62.40;97909.72;5075885;28;20111;-71
2022/04/02 05:32:58;;;;;;;;;;;;;;;4.24;61.83;97896.22;5075961;28;20094;-70
2022/04/02 05:35:28;;;;;;;8.18;4.50;;;;;;;4.47;61.96;97907.03;5066595;28;19920;-70
2022/04/02 05:37:58;;;;;;;10.25;6.30;;;;;;;4.57;61.60;97913.72;5095337;28;20052;-70
2022/04/02 05:40:27;;;;;;;10.47;5.43;;;;;;;4.56;61.39;97917.94;5061347;28;20509;-70
2022/04/02 05:42:57;;;;;;;11.88;6.20;;;;;;;4.69;61.35;97921.22;5095536;28;20277;-70
2022/04/02 05:45:27;;;;;;;;;;;;;;;4.81;59.85;97923.69;5095926;28;20048;-70
2022/04/02 05:47:56;;;;;;;8.80;4.95;;;;;;;5.07;59.53;97914.22;5095416;28;19920;-70
2022/04/02 05:50:26;;;;;;;8.63;3.83;;;;;;;4.94;60.75;97917.72;5095264;28;20040;-70
2022/04/02 05:53:10;;;;;;;10.57;5.07;;;;;;;5.05;59.10;97913.41;5095356;28;20055;-70
2022/04/02 05:55:39;;;;;;;;;;;;;;;5.06;59.17;97919.31;5096309;28;20458;-70
2022/04/02 05:58:11;;;;;;;9.27;4.85;;;;;;;5.20;59.19;97922.56;5095167;28;19958;-70
2022/04/02 06:00:42;;;;;;;9.63;4.95;;;;;;;5.27;58.57;97922.50;5095611;28;20545;-71
2022/04/02 06:03:11;;;;;;;8.52;4.38;;;;;;;5.18;58.95;97925.09;5095193;28;20075;-71
2022/04/02 06:05:41;;;;;;;8.50;4.53;;;;;;;5.30;58.72;97919.94;5095339;28;20036;-71
2022/04/02 06:08:10;;;;;;;;;;;;;;;5.39;57.55;97919.03;5095721;28;20047;-71
2022/04/02 06:10:39;;;;;;;8.82;4.80;;;;;;;5.60;57.63;97923.06;5094856;28;19973;-71
2022/04/02 06:13:08;;;;;;;8.25;4.57;;;;;;;5.74;56.59;97921.22;5095226;28;20448;-70
2022/04/02 06:15:38;;;;;;;10.18;4.60;;;;;;;5.99;56.22;97927.75;5095014;28;20040;-71
2022/04/02 06:18:08;;;;;;;5.72;2.97;;;;;;;6.21;55.31;97926.66;5094586;28;20135;-71
2022/04/02 06:20:37;;;;;;;8.43;4.53;;;;;;;6.27;54.95;97933.31;5076596;28;20052;-71
2022/04/02 06:23:07;;;;;;;7.93;3.92;;;;;;;6.37;54.51;97924.75;5094615;28;20055;-70
2022/04/02 06:25:36;;;;;;;8.70;3.85;;;;;;;6.63;54.32;97933.72;5094731;28;20047;-71
2022/04/02 06:28:05;;;;;;;8.50;4.28;;;;;;;6.71;54.23;97937.00;5094584;28;20051;-70
2022/04/02 06:30:35;;;;;;;7.47;3.78;;;;;;;6.67;52.87;97935.34;5094936;28;20485;-71
2022/04/02 06:33:05;;;;;;;6.38;3.65;;;;;;;6.73;52.10;97935.28;5094516;28;20051;-70
2022/04/02 06:35:36;;;;;;;6.22;3.20;;;;;;;6.71;52.43;97939.53;5076477;28;20078;-71
2022/04/02 06:38:06;;;;;;;6.05;3.30;;;;;;;6.97;52.80;97943.38;5094756;28;20384;-71
2022/04/02 06:40:35;;;;;;;6.82;4.10;;;;;;;7.11;52.37;97941.47;5094661;28;20489;-70
2022/04/02 06:43:04;;;;;;;6.40;3.30;;;;;;;7.19;50.69;97940.50;5094316;28;20040;-71
2022/04/02 06:45:46;;;;;;;5.63;3.20;;;;;;;7.15;51.84;97945.66;5076052;28;20283;-70
2022/04/02 06:48:15;;;;;;;6.82;3.60;;;;;;;7.47;51.17;97940.91;5093675;28;20051;-71
2022/04/02 06:50:45;;;;;;;5.63;3.35;;;;;;;7.72;50.67;97941.31;5076561;28;20067;-71
2022/04/02 06:53:14;;;;;;;7.15;3.50;;;;;;;7.54;50.32;97945.00;5094283;28;20071;-71
2022/04/02 06:55:45;;;;;;;7.00;3.50;;;;;;;7.48;51.54;97949.34;5094536;28;20048;-70
2022/04/02 06:58:25;;;;;;;4.90;3.15;;;;;;;7.03;51.48;97944.13;5094075;28;20044;-71
2022/04/02 07:00:54;;;;;;;5.47;3.20;;;;;;;6.96;51.19;97946.78;5094162;28;20052;-71
2022/04/02 07:03:23;;;;;;;6.28;3.28;;;;;;;7.20;51.22;97954.00;5093991;28;20055;-71
2022/04/02 07:05:54;;;;;;;5.70;3.20;;;;;;;7.10;51.80;97955.03;5094288;28;20123;-71
2022/04/02 07:08:23;;;;;;;7.13;3.60;;;;;;;6.98;52.33;97961.09;5094316;28;20398;-71
2022/04/02 07:10:52;;;;;;;9.27;4.20;;;;;;;6.93;52.30;97962.03;5094406;28;20040;-71
2022/04/02 07:13:21;;;;;;;;;;;;;;;6.69;51.41;97969.09;5076319;28;20284;-70
2022/04/02 07:15:50;;;;;;;8.40;3.25;;;;;;;6.45;52.95;97979.56;5093672;28;19926;-71
2022/04/02 07:18:22;;;;;;;5.82;2.95;;;;;;;6.39;52.93;97974.56;5093548;28;20143;-71
2022/04/02 07:20:53;;;;;;;5.60;2.85;;;;;;;6.51;52.84;97979.47;5094319;28;20131;-71
2022/04/02 07:23:23;;;;;;;9.18;3.15;;;;;;;6.55;53.51;97976.03;5076563;28;20507;-70
2022/04/02 07:25:56;;;;;;;6.53;3.65;;;;;;;6.57;52.65;97979.41;5093771;28;20047;-71
2022/04/02 07:28:27;;;;;;;6.95;3.13;;;;;;;6.44;52.82;97962.69;5093754;28;20055;-71
2022/04/02 07:30:56;;;;;;;7.00;3.40;;;;;;;6.94;52.48;97978.91;5093795;28;20096;-71
2022/04/02 07:33:27;;;;;;;5.57;3.03;;;;;;;6.88;52.46;97987.47;5075717;28;20060;-71
2022/04/02 07:36:05;;;;;;;4.77;3.00;;;;;;;6.68;52.17;97986.88;5075909;28;20581;-70
2022/04/02 07:38:40;;;;;;;5.82;3.08;;;;;;;6.68;52.88;97990.25;5059014;28;20321;-71
2022/04/02 07:41:19;;;;;;;5.70;3.08;;;;;;;6.45;52.63;97988.84;5093635;28;20501;-71
2022/04/02 07:43:51;;;;;;;;;;;;;;;6.49;52.26;97986.28;5094254;28;20436;-71
2022/04/02 07:46:22;;;;;;;4.90;2.55;;;;;;;6.46;52.32;97986.28;5093942;28;20350;-71
2022/04/02 07:48:53;;;;;;;6.75;2.88;;;;;;;6.67;52.35;97993.63;5093774;28;20072;-71
2022/04/02 07:51:31;;;;;;;7.03;3.38;;;;;;;7.00;52.06;97989.84;5075630;28;20048;-71
2022/04/02 07:54:04;;;;;;;5.43;3.25;;;;;;;7.29;51.12;97986.88;5093484;28;20052;-71
2022/04/02 07:56:38;;;;;;;7.13;3.13;;;;;;;7.27;51.16;97981.81;5075735;28;20075;-71
2022/04/02 07:59:11;;;;;;;5.28;2.83;;;;;;;7.54;50.89;97985.63;5096635;28;20082;-71
2022/04/02 08:01:45;;;;;;;8.82;3.85;;;;;;;8.31;50.65;97994.44;5098053;28;20059;-71
2022/04/02 08:04:14;;;;;;;6.80;3.67;;;;;;;8.43;49.30;97985.75;5097985;28;20134;-70
2022/04/02 08:06:45;;;;;;;7.63;3.63;;;;;;;8.22;49.84;97994.59;5097766;28;20084;-71
2022/04/02 08:09:15;;;;;;;6.57;3.33;;;;;;;7.88;50.15;98004.50;5097358;28;20044;-71
2022/04/02 08:11:44;;;;;;;;;;;;;;;8.23;49.58;97995.44;5097795;28;20093;-71
2022/04/02 08:14:14;;;;;;;6.47;3.93;;;;;;;8.67;49.53;97993.72;5097246;28;20015;-70
2022/04/02 08:16:44;;;;;;;6.88;3.80;;;;;;;8.83;48.87;97989.16;5097489;28;20044;-71
2022/04/02 08:19:14;;;;;;;6.45;3.55;;;;;;;8.59;48.59;97990.50;5097068;28;20070;-71
2022/04/02 08:21:44;;;;;;;7.00;3.70;;;;;;;8.59;48.37;98000.66;5097097;28;20044;-71
2022/04/02 08:24:13;;;;;;;6.18;3.60;;;;;;;8.41;48.93;97995.09;5097122;28;20082;-71
2022/04/02 08:26:58;;;;;;;6.68;3.60;;;;;;;8.80;49.84;98003.66;5062603;28;20064;-71
2022/04/02 08:29:38;;;;;;;6.40;3.78;;;;;;;8.63;49.13;98009.09;5078937;28;20058;-71
2022/04/02 08:32:23;;;;;;;7.88;3.83;;;;;;;8.78;49.93;98006.25;5097251;28;20397;-70
2022/04/02 08:35:05;;;;;;;7.93;4.40;;;;;;;8.96;48.44;97998.22;5096903;28;20052;-71
2022/04/02 08:38:04;;;;;;;6.20;3.80;;;;;;;9.23;48.12;98012.03;5096901;28;20093;-71
2022/04/02 08:41:05;;;;;;;5.72;3.42;;;;;;;9.33;47.43;98006.69;5097124;28;20067;-70
2022/04/02 08:43:54;;;;;;;5.80;3.30;;;;;;;9.10;47.98;98014.00;5096706;28;20045;-70
2022/04/02 08:46:36;;;;;;;7.10;3.58;;;;;;;9.32;47.04;98006.75;5097010;28;20416;-70
2022/04/02 08:49:22;;;;;;;6.45;3.40;;;;;;;9.81;46.18;98003.88;5078705;28;20048;-70
2022/04/02 08:52:17;;;;;;;6.93;3.80;;;;;;;10.28;45.54;98007.78;5096515;28;20040;-70
2022/04/02 08:55:08;;;;;;;6.70;3.75;;;;;;;9.59;46.83;98028.19;5096536;28;20059;-71
2022/04/02 08:57:58;;;;;;;6.38;3.50;;;;;;;9.12;48.78;98032.63;5096357;28;20044;-71
2022/04/02 09:00:28;;;;;;;6.47;4.07;;;;;;;8.99;49.50;98032.94;5096782;28;20115;-70
2022/04/02 09:03:20;;;;;;;7.25;4.28;;;;;;;9.00;49.82;98032.88;5096583;28;20067;-71
2022/04/02 09:06:04;;;;;;;7.05;4.03;;;;;;;8.85;49.25;98029.84;5096400;28;20047;-71
2022/04/02 09:08:57;;;;;;;7.40;4.20;;;;;;;8.66;48.40;98031.91;5096449;28;20043;-71
2022/04/02 09:11:30;;;;;;;6.15;3.75;;;;;;;8.70;48.96;98031.81;5077861;28;20056;-70
2022/04/02 09:14:19;;;;;;;7.93;4.05;;;;;;;8.44;50.61;98039.13;5096014;28;20044;-71
2022/04/02 09:17:01;;;;;;;7.22;3.42;;;;;;;8.32;49.08;98038.50;5078163;28;20071;-71
2022/04/02 09:19:46;;;;;;;6.30;4.20;;;;;;;8.38;50.42;98035.81;5095875;28;20040;-71
2022/04/02 09:22:32;;;;;;;6.03;3.70;;;;;;;8.22;49.85;98039.50;5095934;28;20052;-71
2022/04/02 09:25:30;;;;;;;9.00;3.95;;;;;;;7.76;50.69;98041.97;5096489;28;20482;-71
2022/04/02 09:28:22;;;;;;;7.13;3.95;;;;;;;7.75;51.15;98047.91;5095806;28;20074;-72
2022/04/02 09:31:29;;;;;;;6.80;3.63;;;;;;;7.81;50.94;98048.66;5093894;28;20131;-70
2022/04/02 09:34:31;;;;;;;7.88;4.15;;;;;;;7.67;51.13;98044.66;5067529;28;20043;-70
2022/04/02 09:37:05;;;;;;;10.48;3.80;;;;;;;7.78;51.15;98052.94;5077685;28;20050;-70
2022/04/02 09:39:47;;;;;;;6.05;3.25;;;;;;;7.61;49.79;98045.56;5095641;28;20044;-70
2022/04/02 09:42:31;;;;;;;6.90;4.20;;;;;;;7.69;50.99;98058.16;5095618;28;20501;-71
2022/04/02 09:45:05;;;;;;;6.68;3.65;;;;;;;7.86;50.00;98049.41;5095468;28;20048;-70
2022/04/02 09:47:59;;;;;;;8.45;4.15;;;;;;;8.11;50.84;98048.13;5095702;28;20048;-71
2022/04/02 09:50:29;;;;;;;6.53;3.72;;;;;;;7.95;51.82;98056.88;5082870;28;20398;-71
2022/04/02 09:53:06;;;;;;;8.55;4.22;;;;;;;7.84;50.91;98050.31;5095824;28;20040;-71
2022/04/02 09:55:44;;;;;;;6.95;4.20;;;;;;;7.84;51.19;98055.38;5077650;28;20043;-70
2022/04/02 09:58:48;;;;;;;7.40;4.25;;;;;;;7.84;51.74;98053.69;5095168;28;20044;-71
2022/04/02 10:01:28;;;;;;;6.82;3.72;;;;;;;7.81;50.79;98057.97;5095208;28;20033;-71
2022/04/02 10:04:00;;;;;;;6.50;3.65;;;;;;;7.91;50.53;98060.34;5095084;28;20101;-70
2022/04/02 10:06:36;;;;;;;6.55;3.40;;;;;;;7.66;49.58;98063.28;5077031;28;20374;-71
2022/04/02 10:09:10;;;;;;;5.82;3.42;;;;;;;7.46;50.67;98065.28;5095017;28;20048;-71
2022/04/02 10:11:44;;;;;;;6.45;3.55;;;;;;;7.54;50.37;98066.84;5095499;28;20044;-70
2022/04/02 10:14:19;;;;;;;6.88;3.85;;;;;;;7.55;50.82;98075.31;5095037;28;20050;-70
2022/04/02 10:16:53;;;;;;;6.28;3.38;;;;;;;7.49;50.80;98073.69;5095188;28;20044;-70
2022/04/02 10:19:28;;;;;;;5.30;3.22;;;;;;;7.40;50.99;98082.28;5094825;28;20048;-69
2022/04/02 10:21:58;;;;;;;6.20;3.38;;;;;;;7.26;50.33;98073.16;5094626;28;20047;-70
2022/04/02 10:24:35;;;;;;;6.72;3.30;;;;;;;7.35;50.04;98088.25;5094729;28;20135;-70
2022/04/02 10:27:07;;;;;;;6.85;4.20;;;;;;;7.48;51.77;98081.31;5094823;28;20059;-70
2022/04/02 10:29:58;;;;;;;6.28;3.35;;;;;;;7.50;50.72;98088.06;5094649;28;20371;-70
2022/04/02 10:32:51;;;;;;;8.63;4.30;;;;;;;7.34;50.24;98081.53;5076836;28;20542;-71
2022/04/02 10:35:21;;;;;;;6.95;4.00;;;;;;;7.49;50.41;98093.97;5076776;28;20054;-71
2022/04/02 10:38:05;;;;;;;7.90;3.58;;;;;;;7.36;51.01;98095.03;5094492;28;20048;-71
2022/04/02 10:40:42;;;;;;;7.90;3.53;;;;;;;7.21;51.36;98096.06;5094397;28;20045;-71
2022/04/02 10:43:24;;;;;;;6.32;3.42;;;;;;;7.16;51.83;98102.06;5094453;28;20489;-71
2022/04/02 10:45:53;;;;;;;8.73;4.03;;;;;;;7.53;52.24;98098.19;5094405;28;20052;-71
2022/04/02 10:48:28;;;;;;;6.03;3.45;;;;;;;7.54;51.56;98104.06;5094325;28;20048;-70
2022/04/02 10:50:59;;;;;;;7.50;3.35;;;;;;;7.22;51.23;98107.06;5096590;28;20067;-71
2022/04/02 10:53:32;;;;;;;6.60;3.95;;;;;;;7.13;51.00;98107.16;5077143;28;20052;-71
2022/04/02 10:56:13;;;;;;;8.10;4.38;;;;;;;7.04;51.31;98109.81;5094510;28;20134;-70
2022/04/02 10:58:49;;;;;;;8.75;4.63;;;;;;;7.16;53.03;98114.72;5094695;28;20443;-71
2022/04/02 11:01:19;;;;;;;8.48;4.68;;;;;;;6.98;52.84;98102.28;5094038;28;20044;-70
2022/04/02 11:03:56;;;;;;;8.00;4.30;;;;;;;7.18;53.00;98116.41;5094374;28;20435;-70
2022/04/02 11:06:51;;;;;;;7.65;4.05;;;;;;;7.20;52.49;98116.38;5094140;28;20044;-70
2022/04/02 11:09:28;;;;;;;7.05;3.88;;;;;;;7.08;52.68;98114.00;5084892;28;20044;-70
2022/04/02 11:12:06;;;;;;;8.35;4.53;;;;;;;7.10;53.33;98122.44;5093907;28;20124;-70
2022/04/02 11:14:40;;;;;;;8.05;4.30;;;;;;;7.20;52.42;98121.44;5094128;28;20050;-71
2022/04/02 11:17:09;;;;;;;6.80;4.10;;;;;;;7.41;52.34;98118.66;5093939;28;20043;-70
2022/04/02 11:22:26;;;;;;;8.40;4.07;;;;;;;7.25;51.70;98134.91;5094116;28;19920;-71
2022/04/02 11:25:04;;;;;;;7.40;4.45;;;;;;;6.98;51.38;98128.47;5094069;28;20115;-70
2022/04/02 11:27:37;;;;;;;9.95;4.55;;;;;;;7.22;52.85;98127.34;5093977;28;20485;-70
2022/04/02 11:30:09;;;;;;;7.65;3.78;;;;;;;7.23;52.36;98129.03;5093679;28;20433;-71
2022/04/02 11:32:41;;;;;;;7.63;4.30;;;;;;;7.30;52.16;98136.53;5075132;28;20060;-70
2022/04/02 11:35:15;;;;;;;8.75;4.70;;;;;;;7.28;52.32;98137.41;5094027;28;20055;-70
2022/04/02 11:38:04;;;;;;;6.72;3.83;;;;;;;7.15;52.48;98140.97;5094761;28;20059;-70
2022/04/02 11:40:39;;;;;;;9.40;4.05;;;;;;;7.05;51.83;98139.41;5093543;28;20044;-70
2022/04/02 11:43:08;;;;;;;8.00;4.03;;;;;;;7.10;52.58;98151.16;5075586;28;20558;-70
2022/04/02 11:45:38;;;;;;;8.13;4.93;;;;;;;6.97;52.23;98143.72;5093896;28;20436;-70
2022/04/02 11:48:11;;;;;;;8.68;4.85;;;;;;;6.93;51.99;98139.53;5093501;28;20135;-70
2022/04/02 11:50:43;;;;;;;9.10;4.95;;;;;;;7.04;52.34;98153.78;5093750;28;20147;-70
2022/04/02 11:53:12;;;;;;;9.77;5.13;;;;;;;6.74;52.78;98147.31;5093853;28;20512;-71
2022/04/02 11:55:42;;;;;;;8.27;4.55;;;;;;;6.55;53.15;98158.50;5093432;28;20050;-71
2022/04/02 11:58:13;;;;;;;10.25;5.20;;;;;;;6.63;53.74;98159.28;5093473;28;20524;-70
2022/04/02 12:00:44;;;;;;;9.00;4.65;;;;;;;6.70;52.93;98153.28;5093560;28;20386;-71
2022/04/02 12:03:24;;;;;;;10.40;5.20;;;;;;;6.48;52.73;98167.00;5093373;28;20126;-71
2022/04/02 12:05:56;;;;;;;9.40;4.32;;;;;;;6.47;53.33;98157.75;5093445;28;20044;-71
2022/04/02 12:08:29;;;;;;;8.55;4.18;;;;;;;6.48;53.96;98156.88;5093624;28;20371;-71
2022/04/02 12:10:59;;;;;;;10.88;4.97;;;;;;;6.27;53.12;98157.06;5093354;28;20052;-71
2022/04/02 12:13:28;;;;;;;9.38;5.10;;;;;;;6.26;53.91;98170.59;5093503;28;20051;-71
2022/04/02 12:16:08;;;;;;;8.85;4.70;;;;;;;6.18;54.16;98169.81;5093462;28;20036;-71
2022/04/02 12:18:54;;;;;;;9.27;5.10;;;;;;;6.19;54.42;98163.88;5093324;28;20048;-71
2022/04/02 12:21:34;;;;;;;10.18;5.65;;;;;;;6.20;54.54;98170.63;5093354;28;20539;-71